📊 Raw Sensor Data

Showing records 48401 to 48425 of 85,100 total

ID Distance (ft) Battery V Battery A Int Temp (°F) Int Humid (%) Ext Temp (°F) Solar V RSSI SNR Time Stamp
36712 -- 3.85 -5 50 43 51 0.00 -81 8 04/02/2025 09:15 PM
36711 -- 3.82 -5 51 43 52 0.00 -85 8 04/02/2025 09:01 PM
36710 -- 3.83 -5 51 44 52 0.00 -85 7 04/02/2025 08:45 PM
36709 14.9 3.82 -5 52 44 53 0.00 -84 8 04/02/2025 08:30 PM
36708 -- 3.83 -5 53 45 54 0.10 -82 8 04/02/2025 08:15 PM
36707 14.9 3.83 -5 54 46 55 0.00 -84 7 04/02/2025 08:00 PM
36706 14.9 3.94 -5 56 47 55 0.90 -86 8 04/02/2025 07:45 PM
36705 -- 3.80 -10 58 48 56 3.20 -84 9 04/02/2025 07:30 PM
36704 -- 3.98 0 62 46 58 4.60 -82 8 04/02/2025 07:15 PM
36703 -- 3.89 -13 66 44 60 4.50 -83 7 04/02/2025 07:00 PM
36702 -- 3.93 0 69 43 62 5.10 -81 8 04/02/2025 06:45 PM
36701 -- 3.93 0 69 43 63 5.10 -81 8 04/02/2025 06:30 PM
36700 15.0 3.93 0 71 42 62 5.10 -77 8 04/02/2025 06:15 PM
36699 15.0 4.02 0 73 41 63 5.10 -78 6 04/02/2025 06:00 PM
36698 -- 3.93 0 74 41 63 5.10 -76 8 04/02/2025 05:45 PM
36697 15.1 3.93 0 74 41 64 5.10 -78 8 04/02/2025 05:30 PM
36696 -- 3.93 0 74 40 64 5.10 -77 8 04/02/2025 05:15 PM
36695 -- 4.02 0 75 39 64 5.10 -76 8 04/02/2025 05:00 PM
36694 -- 3.93 0 75 39 64 5.10 -78 7 04/02/2025 04:45 PM
36693 -- 3.93 0 76 38 65 5.10 -78 8 04/02/2025 04:30 PM
36692 -- 4.12 0 74 38 65 5.10 -77 8 04/02/2025 04:15 PM
36691 -- 3.93 0 74 38 63 5.10 -77 8 04/02/2025 04:00 PM
36690 -- 3.93 0 74 37 62 5.10 -79 9 04/02/2025 03:45 PM
36689 15.1 3.93 0 73 37 64 5.10 -79 8 04/02/2025 03:30 PM
36688 15.0 3.93 0 71 38 62 5.10 -77 8 04/02/2025 03:15 PM